This is the latest recevied weather packets stored in our database for station/object WMKP. If no packets are shown the sender has not sent any weather packets the latest 1 day(s).
| Time | Temp. | Humidity | Pressure | Rain* | Wind** | Luminosity | Snow |
|---|---|---|---|---|---|---|---|
| 1836274593 | 30° C | 66% | 1012 hPa | - | 0.89 m/s, 0° | - | - |
| 1778064011 | 28.89° C | 79% | 1005 hPa | - | 1.79 m/s, 240° | - | - |
| 1778062226 | 28.89° C | 79% | 1005 hPa | - | 1.79 m/s, 240° | - | - |
| 1778060409 | 28.89° C | 79% | 1005 hPa | - | 2.24 m/s, 230° | - | - |
| 1778058627 | 28.89° C | 74% | 1005 hPa | - | 1.34 m/s, 260° | - | - |
| 1778056808 | 28.89° C | 74% | 1005 hPa | - | 2.68 m/s, 230° | - | - |
| 1778055027 | 30° C | 70% | 1006 hPa | - | 2.68 m/s, 220° | - | - |
| 1778053208 | 30° C | 70% | 1006 hPa | - | 4.02 m/s, 220° | - | - |
| 1778051434 | 30.56° C | 66% | 1006 hPa | - | 4.47 m/s, 230° | - | - |
| 1778049611 | 30.56° C | 70% | 1007 hPa | - | 3.13 m/s, 220° | - | - |
| 1778047825 | 30.56° C | 66% | 1007 hPa | - | 3.58 m/s, 230° | - | - |
| 1778046008 | 30.56° C | 70% | 1008 hPa | - | 3.58 m/s, 220° | - | - |
| 1778044226 | 30.56° C | 74% | 1008 hPa | - | 3.13 m/s, 230° | - | - |
| 1778042407 | 30° C | 74% | 1009 hPa | - | 2.68 m/s, 220° | - | - |
| 1778040627 | 30° C | 74% | 1009 hPa | - | 2.68 m/s, 230° | - | - |
| 1778038807 | 30° C | 74% | 1009 hPa | - | 2.24 m/s, 190° | - | - |
| 1778037031 | 30° C | 74% | 1009 hPa | - | 1.79 m/s, 160° | - | - |
| 1778035210 | 30° C | 74% | 1009 hPa | - | 1.34 m/s, 0° | - | - |
| 1778033425 | 30° C | 79% | 1009 hPa | - | 1.79 m/s, 140° | - | - |
| 1778031607 | 27.78° C | 83% | 1009 hPa | - | 0.45 m/s, 0° | - | - |
| 1778030402 | 27.78° C | 83% | 1008 hPa | - | 0.89 m/s, 0° | - | - |
| 1778029826 | 27.78° C | 83% | 1008 hPa | - | 0.89 m/s, 0° | - | - |
| 1778028009 | 26.67° C | 88% | 1008 hPa | - | 0.89 m/s, 0° | - | - |
| 1778026227 | 25.56° C | 88% | 1008 hPa | - | 0.89 m/s, 0° | - | - |
| 1778024407 | 25° C | 94% | 1008 hPa | - | 0.89 m/s, 0° | - | - |
* Rain since midnight (hover to see other rain measurements)
** Current wind speed in m/s (hover to see current wind gust speed)